Time;durP1;ratioP1;P1;durP2;ratioP2;P2;SDS_P1;SDS_P2;PMS_P1;PMS_P2;Temp;Humidity;BMP_temperature;BMP_pressure;BME280_temperature;BME280_humidity;BME280_pressure;Samples;Min_cycle;Max_cycle;Signal;HPM_P1;HPM_P2
2022/01/21 00:01:45;;;;;;;7.72;2.15;;;23.40;99.90;;;;;;5023081;28;20022;-64
2022/01/21 00:04:12;;;;;;;10.23;1.65;;;23.40;99.90;;;;;;5028044;28;20478;-64
2022/01/21 00:06:40;;;;;;;5.63;1.48;;;23.50;99.90;;;;;;5026415;28;20029;-63
2022/01/21 00:09:08;;;;;;;8.75;1.33;;;23.40;99.90;;;;;;5016862;28;20478;-63
2022/01/21 00:11:38;;;;;;;5.28;1.02;;;23.50;99.90;;;;;;5031356;28;20034;-63
2022/01/21 00:14:06;;;;;;;12.50;1.48;;;23.60;99.90;;;;;;5027644;28;20037;-63
2022/01/21 00:16:35;;;;;;;12.90;2.30;;;23.50;99.90;;;;;;5012473;28;20046;-63
2022/01/21 00:19:15;;;;;;;11.73;1.73;;;23.40;99.90;;;;;;5013626;28;20048;-63
2022/01/21 00:32:33;;;;;;;7.72;1.30;;;23.90;99.90;;;;;;5027897;28;20104;-63
2022/01/21 00:35:01;;;;;;;10.23;1.40;;;23.90;99.90;;;;;;5027547;28;20029;-63
2022/01/21 00:37:28;;;;;;;8.45;1.17;;;23.70;99.90;;;;;;5035470;28;20095;-63
2022/01/21 00:40:00;;;;;;;6.05;0.80;;;23.70;99.90;;;;;;5034656;28;20036;-63
2022/01/21 00:45:12;;;;;;;9.00;1.73;;;23.70;99.90;;;;;;5034922;28;20034;-64
2022/01/21 00:47:40;;;;;;;6.60;1.52;;;24.10;99.90;;;;;;5035459;28;20066;-63
2022/01/21 00:50:08;;;;;;;6.18;1.17;;;24.40;99.90;;;;;;5033897;28;20088;-63
2022/01/21 00:52:36;;;;;;;4.63;1.17;;;24.00;99.90;;;;;;5021089;28;20034;-63
2022/01/21 00:55:05;;;;;;;4.45;0.73;;;24.10;99.90;;;;;;5019657;28;20017;-63
2022/01/21 00:57:32;;;;;;;5.47;0.90;;;24.60;99.90;;;;;;5034588;28;20033;-64
2022/01/21 00:59:59;;;;;;;6.63;0.80;;;24.20;99.90;;;;;;5034033;28;20026;-63
2022/01/21 01:02:28;;;;;;;5.28;0.70;;;24.60;99.90;;;;;;5035121;28;20080;-64
2022/01/21 01:04:55;;;;;;;3.50;0.63;;;24.40;99.90;;;;;;5032975;28;20091;-63
2022/01/21 01:07:23;;;;;;;6.43;0.55;;;24.10;99.90;;;;;;5034354;28;20022;-64
2022/01/21 01:09:53;;;;;;;8.05;1.15;;;23.90;99.90;;;;;;5026276;28;20072;-65
2022/01/21 01:12:42;;;;;;;6.05;1.52;;;23.60;99.90;;;;;;5024864;28;20017;-63
2022/01/21 01:20:41;;;;;;;5.75;1.23;;;23.20;99.90;;;;;;5029908;28;20425;-62
2022/01/21 01:23:22;;;;;;;6.90;1.95;;;23.30;99.90;;;;;;5031748;28;20079;-62
2022/01/21 01:28:35;;;;;;;8.40;1.33;;;23.40;99.90;;;;;;5034355;28;20520;-63
2022/01/21 01:31:03;;;;;;;7.20;1.20;;;23.10;99.90;;;;;;5016716;28;20030;-63
2022/01/21 01:33:38;;;;;;;9.10;2.20;;;23.10;99.90;;;;;;5015212;28;20164;-63
2022/01/21 01:36:08;;;;;;;10.15;1.92;;;23.10;99.90;;;;;;5013739;28;20030;-63
2022/01/21 01:39:13;;;;;;;14.57;2.22;;;23.30;99.90;;;;;;5024303;28;20026;-63
2022/01/21 01:41:40;;;;;;;;;;;23.30;99.90;;;;;;5034289;28;20038;-63
2022/01/21 01:49:40;;;;;;;10.00;2.17;;;23.50;99.90;;;;;;5029926;28;20496;-63
2022/01/21 01:52:13;;;;;;;8.48;1.88;;;23.60;99.90;;;;;;5023654;28;20026;-63
2022/01/21 01:54:54;;;;;;;13.07;2.58;;;23.70;99.90;;;;;;5027484;28;20029;-63
2022/01/21 01:57:21;;;;;;;7.53;1.30;;;23.50;99.90;;;;;;5028981;28;20029;-63
2022/01/21 01:59:51;;;;;;;10.57;1.92;;;23.50;99.90;;;;;;5025209;28;20050;-63
2022/01/21 02:02:20;;;;;;;9.00;1.55;;;23.30;99.90;;;;;;5015600;28;20021;-64
2022/01/21 02:04:49;;;;;;;9.68;2.15;;;23.20;99.90;;;;;;5021876;28;20022;-62
2022/01/21 02:07:16;;;;;;;10.13;2.13;;;23.20;99.90;;;;;;5019964;28;20030;-62
2022/01/21 02:09:44;;;;;;;9.63;1.40;;;23.20;99.90;;;;;;5022013;28;20497;-62
2022/01/21 02:12:11;;;;;;;7.15;1.70;;;23.30;99.90;;;;;;5022337;28;20022;-62
2022/01/21 02:14:47;;;;;;;8.13;1.10;;;23.30;99.90;;;;;;5022395;28;20026;-62
2022/01/21 02:21:29;;;;;;;6.55;1.42;;;23.30;99.90;;;;;;5018647;28;20041;-62
2022/01/21 02:22:49;;;;;;;12.27;1.65;;;23.30;99.90;;;;;;5022526;28;20112;-62
2022/01/21 02:25:19;;;;;;;7.38;1.23;;;23.20;99.90;;;;;;5018763;28;20037;-62
2022/01/21 02:27:51;;;;;;;7.82;1.77;;;23.30;99.90;;;;;;5023712;28;20028;-63
2022/01/21 02:30:20;;;;;;;9.93;1.50;;;23.30;99.90;;;;;;5022773;28;20041;-63
2022/01/21 02:32:53;;;;;;;7.43;1.88;;;23.20;99.90;;;;;;5024218;28;20028;-63
2022/01/21 02:35:21;;;;;;;9.93;2.28;;;23.30;99.90;;;;;;5024284;28;20026;-62
2022/01/21 02:37:49;;;;;;;14.55;2.10;;;23.50;99.90;;;;;;5016725;28;20038;-63
2022/01/21 02:40:17;;;;;;;7.28;1.52;;;23.40;99.90;;;;;;5018961;28;20536;-63
2022/01/21 02:42:45;;;;;;;9.45;1.50;;;23.30;99.90;;;;;;5023122;28;20526;-63
2022/01/21 02:45:15;;;;;;;9.18;1.65;;;23.20;99.90;;;;;;5024188;28;20033;-63
2022/01/21 02:47:44;;;;;;;9.75;1.65;;;23.10;99.90;;;;;;5020143;28;20049;-64
2022/01/21 02:50:13;;;;;;;10.80;1.80;;;23.10;99.90;;;;;;5016442;28;20032;-63
2022/01/21 02:52:53;;;;;;;5.75;1.10;;;23.10;99.90;;;;;;5027623;28;20030;-64
2022/01/21 02:55:21;;;;;;;7.65;1.17;;;23.20;99.90;;;;;;5017327;28;20022;-64
2022/01/21 02:57:48;;;;;;;7.63;1.63;;;23.20;99.90;;;;;;5021235;28;20041;-64
2022/01/21 03:00:16;;;;;;;11.27;1.63;;;23.30;99.90;;;;;;5026672;28;20025;-64
2022/01/21 03:02:43;;;;;;;8.45;1.83;;;23.40;99.90;;;;;;5022805;28;20060;-63
2022/01/21 03:05:15;;;;;;;7.85;0.93;;;23.50;99.90;;;;;;5023185;28;20034;-63
2022/01/21 03:07:42;;;;;;;8.30;1.65;;;23.70;99.90;;;;;;5021423;28;20422;-64
2022/01/21 03:10:11;;;;;;;6.63;1.60;;;23.80;99.90;;;;;;5027963;28;20393;-63
2022/01/21 03:12:38;;;;;;;10.55;1.83;;;23.70;99.90;;;;;;5018584;28;20030;-63
2022/01/21 03:15:07;;;;;;;6.95;1.00;;;23.50;99.90;;;;;;5022757;28;20029;-63
2022/01/21 03:17:37;;;;;;;9.55;1.42;;;23.50;99.90;;;;;;5025295;28;20036;-62
2022/01/21 03:20:06;;;;;;;8.25;1.55;;;23.50;99.90;;;;;;5018611;28;20054;-63
2022/01/21 03:22:34;;;;;;;9.15;2.08;;;24.10;99.90;;;;;;5021429;28;20051;-62
2022/01/21 03:25:01;;;;;;;7.13;1.27;;;24.10;99.90;;;;;;5021397;28;20025;-64
2022/01/21 03:27:28;;;;;;;5.68;1.08;;;23.90;99.90;;;;;;5031486;28;20036;-64
2022/01/21 03:29:57;;;;;;;12.65;1.85;;;23.50;99.90;;;;;;5027282;28;20469;-64
2022/01/21 03:32:25;;;;;;;6.03;1.52;;;23.40;99.90;;;;;;5028265;28;20025;-64
2022/01/21 03:34:53;;;;;;;6.97;1.08;;;23.50;99.90;;;;;;5025516;28;20032;-64
2022/01/21 03:37:20;;;;;;;10.32;1.25;;;24.00;99.90;;;;;;5021407;28;20037;-64
2022/01/21 03:39:47;;;;;;;9.48;1.20;;;23.90;99.90;;;;;;5025179;28;20370;-64
2022/01/21 03:42:15;;;;;;;9.75;1.88;;;23.80;99.90;;;;;;5022673;28;20052;-64
2022/01/21 03:44:42;;;;;;;10.75;2.28;;;23.80;99.90;;;;;;5013693;28;20025;-63
2022/01/21 03:47:10;;;;;;;10.07;1.52;;;23.80;99.90;;;;;;5021339;28;20132;-64
2022/01/21 03:49:40;;;;;;;8.32;1.67;;;23.90;99.90;;;;;;5027270;28;20026;-64
2022/01/21 03:52:08;;;;;;;8.07;1.67;;;23.90;99.90;;;;;;5031005;28;20018;-64
2022/01/21 03:54:36;;;;;;;7.95;2.00;;;23.80;99.90;;;;;;5024093;28;20018;-64
2022/01/21 03:57:04;;;;;;;12.18;2.10;;;23.60;99.90;;;;;;5012252;28;20034;-63
2022/01/21 03:59:31;;;;;;;9.13;1.17;;;23.40;99.90;;;;;;5014747;28;20382;-64
2022/01/21 04:01:59;;;;;;;11.13;1.30;;;23.00;99.90;;;;;;5025867;28;20482;-64
2022/01/21 04:04:27;;;;;;;9.77;1.58;;;22.70;99.90;;;;;;5033657;28;20029;-63
2022/01/21 04:06:54;;;;;;;10.80;1.35;;;22.30;99.90;;;;;;5026462;28;20766;-64
2022/01/21 04:09:21;;;;;;;8.52;2.00;;;21.40;99.90;;;;;;5030321;28;20036;-63
2022/01/21 04:11:49;;;;;;;10.75;1.98;;;21.00;99.90;;;;;;5027991;28;20109;-63
2022/01/21 04:14:16;;;;;;;10.60;1.88;;;20.50;99.90;;;;;;5021306;28;20025;-64
2022/01/21 04:16:44;;;;;;;8.77;1.42;;;20.30;99.90;;;;;;5019213;28;20114;-63
2022/01/21 04:19:11;;;;;;;6.70;1.10;;;20.20;99.90;;;;;;5017493;28;20440;-63
2022/01/21 04:21:38;;;;;;;6.50;1.27;;;20.30;99.90;;;;;;5020154;28;20465;-63
2022/01/21 04:24:06;;;;;;;13.27;2.65;;;20.40;99.90;;;;;;5025926;28;20037;-64
2022/01/21 04:26:33;;;;;;;7.85;0.98;;;20.70;99.90;;;;;;5023894;28;20026;-64
2022/01/21 04:29:01;;;;;;;7.65;1.08;;;21.00;99.90;;;;;;5021998;28;20026;-63
2022/01/21 04:31:28;;;;;;;8.05;1.55;;;20.80;99.90;;;;;;5020923;28;20113;-63
2022/01/21 04:33:55;;;;;;;10.48;1.58;;;20.90;99.90;;;;;;5032988;28;20498;-64
2022/01/21 04:36:22;;;;;;;11.00;1.15;;;21.10;99.90;;;;;;5023727;28;20512;-64
2022/01/21 04:38:53;;;;;;;9.73;2.25;;;21.00;99.90;;;;;;5022724;28;20065;-63
2022/01/21 04:41:52;;;;;;;7.38;1.58;;;21.30;99.90;;;;;;5022018;28;20017;-63
2022/01/21 04:49:37;;;;;;;8.60;1.25;;;21.20;99.90;;;;;;5032226;28;20501;-63
2022/01/21 04:52:05;;;;;;;9.48;1.33;;;21.10;99.90;;;;;;5016308;28;20069;-63
2022/01/21 04:54:35;;;;;;;9.45;1.25;;;21.30;99.90;;;;;;5022265;28;20033;-64
2022/01/21 04:57:04;;;;;;;11.73;1.40;;;21.30;99.90;;;;;;5025851;28;20025;-63
2022/01/21 04:59:31;;;;;;;5.45;0.85;;;21.20;99.90;;;;;;5019832;28;20022;-63
2022/01/21 05:01:58;;;;;;;10.70;1.58;;;21.30;99.90;;;;;;5021168;28;20029;-63
2022/01/21 05:04:26;;;;;;;7.35;0.70;;;21.40;99.90;;;;;;5019320;28;20029;-63
2022/01/21 05:06:54;;;;;;;12.13;1.17;;;21.60;99.90;;;;;;5026316;28;20374;-64
2022/01/21 05:09:33;;;;;;;7.50;1.75;;;21.40;99.90;;;;;;5017551;28;20064;-64
2022/01/21 05:12:07;;;;;;;7.97;0.90;;;21.50;99.90;;;;;;5020207;28;20026;-63
2022/01/21 05:17:16;;;;;;;5.75;1.15;;;21.60;99.90;;;;;;5025216;28;20041;-63
2022/01/21 05:19:44;;;;;;;9.88;1.25;;;21.70;99.90;;;;;;5022728;28;20049;-63
2022/01/21 05:22:11;;;;;;;7.45;1.33;;;21.80;99.90;;;;;;5030366;28;20027;-63
2022/01/21 05:24:39;;;;;;;6.07;0.82;;;21.50;99.90;;;;;;5028374;28;20017;-64
2022/01/21 05:27:11;;;;;;;7.38;1.00;;;21.50;99.90;;;;;;5018208;28;20080;-63
2022/01/21 05:29:39;;;;;;;4.38;0.80;;;21.50;99.90;;;;;;5021849;28;20500;-63
2022/01/21 05:32:08;;;;;;;7.93;1.23;;;21.30;99.90;;;;;;5017961;28;20140;-64
2022/01/21 05:34:35;;;;;;;7.68;1.27;;;21.40;99.90;;;;;;5021810;28;20025;-63
2022/01/21 05:37:03;;;;;;;8.77;1.30;;;21.30;99.90;;;;;;5024721;28;20033;-64
2022/01/21 05:39:30;;;;;;;8.75;1.60;;;21.30;99.90;;;;;;5023563;28;20472;-63
2022/01/21 05:41:57;;;;;;;7.03;1.40;;;21.20;99.90;;;;;;5023182;28;20030;-63
2022/01/21 05:46:59;;;;;;;6.53;1.30;;;20.80;99.90;;;;;;5024264;28;20129;-63
2022/01/21 05:49:29;;;;;;;6.40;0.75;;;20.70;99.90;;;;;;5020321;28;20120;-63
2022/01/21 05:52:06;;;;;;;9.43;1.08;;;20.50;99.90;;;;;;5028059;28;20068;-64
2022/01/21 05:54:35;;;;;;;6.53;0.95;;;20.50;99.90;;;;;;5028806;28;20022;-63
2022/01/21 05:57:06;;;;;;;5.80;1.00;;;20.60;99.90;;;;;;5029794;28;20448;-63
2022/01/21 05:59:35;;;;;;;7.80;0.95;;;20.60;99.90;;;;;;5021912;28;20022;-64
2022/01/21 06:02:02;;;;;;;6.88;0.88;;;20.70;99.90;;;;;;5016884;28;20052;-64
2022/01/21 06:04:30;;;;;;;7.43;1.10;;;20.80;99.90;;;;;;5021114;28;20021;-63
2022/01/21 06:06:57;;;;;;;5.28;1.23;;;20.80;99.90;;;;;;5030802;28;20545;-64
2022/01/21 06:09:24;;;;;;;6.97;1.20;;;20.90;99.90;;;;;;5029208;28;20022;-64
2022/01/21 06:11:52;;;;;;;6.90;0.98;;;20.90;99.90;;;;;;5023988;28;20067;-63
2022/01/21 06:14:20;;;;;;;6.25;0.98;;;20.90;99.90;;;;;;5018006;28;20034;-63
2022/01/21 06:16:47;;;;;;;6.88;1.33;;;20.70;99.90;;;;;;5026232;28;20100;-63
2022/01/21 06:19:15;;;;;;;4.43;0.88;;;20.70;99.90;;;;;;5024599;28;20117;-63
2022/01/21 06:21:42;;;;;;;5.72;0.73;;;20.80;99.90;;;;;;5022885;28;20030;-63
2022/01/21 06:24:09;;;;;;;11.50;1.20;;;20.90;99.90;;;;;;5014719;28;20033;-63
2022/01/21 06:26:37;;;;;;;7.65;1.27;;;20.80;99.90;;;;;;5015289;28;20026;-63
2022/01/21 06:29:05;;;;;;;11.13;2.15;;;20.80;99.90;;;;;;5025336;28;20041;-63
2022/01/21 06:31:33;;;;;;;8.93;1.38;;;20.80;99.90;;;;;;5032699;28;20029;-63
2022/01/21 06:34:00;;;;;;;9.38;1.45;;;20.90;99.90;;;;;;5014941;28;20030;-63
2022/01/21 06:36:28;;;;;;;8.00;1.33;;;21.00;99.90;;;;;;5013923;28;20034;-63
2022/01/21 06:38:56;;;;;;;6.25;1.55;;;20.90;99.90;;;;;;5031372;28;20381;-63
2022/01/21 06:41:23;;;;;;;7.72;1.45;;;21.00;99.90;;;;;;5021163;28;20036;-63
2022/01/21 06:43:51;;;;;;;9.52;2.05;;;20.90;99.90;;;;;;5029163;28;20113;-63
2022/01/21 06:46:18;;;;;;;5.97;1.05;;;20.90;99.90;;;;;;5024914;28;20025;-63
2022/01/21 06:48:45;;;;;;;8.18;1.05;;;20.90;99.90;;;;;;5020804;28;20049;-63
2022/01/21 06:51:12;;;;;;;8.95;1.75;;;20.90;99.90;;;;;;5020577;28;20105;-63
2022/01/21 06:53:40;;;;;;;4.25;0.82;;;20.90;99.90;;;;;;5021226;28;20409;-63
2022/01/21 06:56:07;;;;;;;3.40;0.68;;;20.80;99.90;;;;;;5024016;28;20021;-64
2022/01/21 06:58:34;;;;;;;5.63;1.50;;;20.80;99.90;;;;;;5023933;28;20127;-64
2022/01/21 07:01:02;;;;;;;7.10;1.02;;;20.80;99.90;;;;;;5028756;28;20398;-63
2022/01/21 07:03:29;;;;;;;5.85;0.70;;;20.70;99.90;;;;;;5015065;28;20030;-63
2022/01/21 07:05:56;;;;;;;9.75;0.93;;;20.80;99.90;;;;;;5016951;28;20025;-64
2022/01/21 07:08:24;;;;;;;5.43;1.00;;;20.80;99.90;;;;;;5020447;28;20044;-63
2022/01/21 07:10:51;;;;;;;7.82;1.27;;;20.60;99.90;;;;;;5023689;28;20030;-63
2022/01/21 07:13:18;;;;;;;8.52;1.55;;;20.50;99.90;;;;;;5018901;28;20398;-63
2022/01/21 07:15:46;;;;;;;6.80;0.70;;;20.60;99.90;;;;;;5021972;28;20026;-63
2022/01/21 07:18:13;;;;;;;7.93;0.70;;;20.60;99.90;;;;;;5025652;28;20041;-63
2022/01/21 07:20:41;;;;;;;6.57;0.80;;;20.60;99.90;;;;;;5028135;28;20021;-64
2022/01/21 07:23:09;;;;;;;5.88;2.28;;;20.70;99.90;;;;;;5018236;28;20030;-63
2022/01/21 07:25:38;;;;;;;8.40;2.03;;;20.70;99.90;;;;;;5020103;28;20030;-63
2022/01/21 07:28:05;;;;;;;17.15;10.10;;;20.80;99.90;;;;;;5020036;28;20029;-63
2022/01/21 07:30:33;;;;;;;13.18;3.55;;;20.90;99.90;;;;;;5031912;28;20030;-63
2022/01/21 07:33:00;;;;;;;10.23;3.30;;;20.80;99.90;;;;;;5029215;28;20025;-64
2022/01/21 07:35:28;;;;;;;7.55;1.52;;;20.90;99.90;;;;;;5021668;28;20467;-63
2022/01/21 07:37:55;;;;;;;8.63;1.00;;;20.80;99.90;;;;;;5016422;28;20034;-63
2022/01/21 07:40:23;;;;;;;8.38;1.25;;;20.80;99.90;;;;;;5032222;28;20021;-63
2022/01/21 07:42:50;;;;;;;7.60;1.10;;;20.70;99.90;;;;;;5029169;28;20116;-63
2022/01/21 07:45:17;;;;;;;7.75;1.13;;;20.70;99.90;;;;;;5018853;28;20088;-63
2022/01/21 07:47:44;;;;;;;3.67;0.90;;;20.70;99.90;;;;;;5025824;28;20398;-63
2022/01/21 07:50:12;;;;;;;7.95;1.38;;;20.70;99.90;;;;;;5022141;28;20026;-63
2022/01/21 07:52:39;;;;;;;6.57;1.33;;;20.80;99.90;;;;;;5012489;28;20030;-63
2022/01/21 07:55:07;;;;;;;6.20;1.45;;;20.80;99.90;;;;;;5025068;28;20034;-64
2022/01/21 07:57:34;;;;;;;8.10;1.33;;;20.80;99.90;;;;;;5027762;28;20120;-63
2022/01/21 08:00:02;;;;;;;5.55;1.02;;;20.70;99.90;;;;;;5015805;28;20105;-63
2022/01/21 08:02:30;;;;;;;5.85;1.40;;;20.70;99.90;;;;;;5026844;28;20057;-63
2022/01/21 08:05:01;;;;;;;4.95;1.40;;;20.70;99.90;;;;;;5014289;28;20538;-63
2022/01/21 08:07:28;;;;;;;6.88;1.23;;;20.70;99.90;;;;;;5020383;28;20046;-64
2022/01/21 08:09:56;;;;;;;8.70;1.77;;;20.70;99.90;;;;;;5022140;28;20033;-63
2022/01/21 08:12:23;;;;;;;6.93;1.48;;;20.60;99.90;;;;;;5011666;28;20379;-63
2022/01/21 08:14:51;;;;;;;6.50;2.00;;;20.60;99.90;;;;;;5019243;28;20450;-63
2022/01/21 08:17:18;;;;;;;10.20;3.03;;;20.70;99.90;;;;;;5026096;28;20183;-63
2022/01/21 08:19:46;;;;;;;7.68;2.22;;;20.60;99.90;;;;;;5012235;28;20502;-63
2022/01/21 08:22:14;;;;;;;11.00;1.48;;;20.60;99.90;;;;;;5012371;28;20053;-64
2022/01/21 08:24:41;;;;;;;6.57;1.10;;;20.60;99.90;;;;;;5012219;28;20104;-64
2022/01/21 08:27:09;;;;;;;7.15;1.52;;;20.70;99.90;;;;;;5025621;28;20117;-64
2022/01/21 08:29:36;;;;;;;7.53;1.50;;;20.70;99.90;;;;;;5027386;28;20061;-64
2022/01/21 08:32:04;;;;;;;7.93;1.67;;;20.60;99.90;;;;;;5022597;28;20036;-65
2022/01/21 08:34:34;;;;;;;6.30;1.10;;;20.60;99.90;;;;;;5025479;28;20061;-64
2022/01/21 08:37:04;;;;;;;5.35;1.33;;;20.60;99.90;;;;;;5019504;28;20129;-63
2022/01/21 08:39:32;;;;;;;3.70;0.70;;;20.50;99.90;;;;;;5018403;28;20019;-63
2022/01/21 08:41:59;;;;;;;7.30;0.55;;;20.60;99.90;;;;;;5017106;28;20029;-64
2022/01/21 08:44:27;;;;;;;10.63;1.75;;;20.50;99.90;;;;;;5024939;28;20129;-63
2022/01/21 08:46:54;;;;;;;7.75;1.75;;;20.40;99.90;;;;;;5028789;28;20490;-63
2022/01/21 08:49:22;;;;;;;8.43;1.38;;;20.40;99.90;;;;;;5028375;28;20037;-63
2022/01/21 08:51:55;;;;;;;8.95;1.45;;;20.40;99.90;;;;;;5025288;28;20029;-64
2022/01/21 08:54:22;;;;;;;7.43;1.75;;;20.40;99.90;;;;;;5033358;28;20029;-64
2022/01/21 08:56:51;;;;;;;6.47;0.88;;;20.40;99.90;;;;;;5023723;28;20038;-63
2022/01/21 08:59:19;;;;;;;7.72;0.70;;;20.40;99.90;;;;;;5033854;28;20021;-64
2022/01/21 09:01:51;;;;;;;5.22;0.95;;;20.40;99.90;;;;;;5018045;28;20025;-63
2022/01/21 09:04:19;;;;;;;7.68;1.27;;;20.40;99.90;;;;;;5018655;28;20030;-63
2022/01/21 09:06:46;;;;;;;5.13;0.80;;;20.40;99.90;;;;;;5028220;28;20108;-63
2022/01/21 09:09:15;;;;;;;7.03;1.38;;;20.40;99.90;;;;;;5033377;28;20110;-63
2022/01/21 09:11:42;;;;;;;6.65;0.95;;;20.30;99.90;;;;;;5031883;28;20091;-63
2022/01/21 09:14:09;;;;;;;7.38;1.38;;;20.30;99.90;;;;;;5015023;28;20029;-63
2022/01/21 09:16:37;;;;;;;9.60;1.42;;;20.30;99.90;;;;;;5018044;28;20034;-63
2022/01/21 09:19:06;;;;;;;5.40;0.80;;;20.40;99.90;;;;;;5031526;28;20132;-64
2022/01/21 09:21:38;;;;;;;5.32;0.85;;;20.30;99.90;;;;;;5033489;28;20031;-64
2022/01/21 09:24:06;;;;;;;6.57;1.02;;;20.30;99.90;;;;;;5019969;28;20029;-64
2022/01/21 09:26:34;;;;;;;8.50;1.00;;;20.30;99.90;;;;;;5017744;28;20397;-64
2022/01/21 09:29:05;;;;;;;8.40;1.67;;;20.20;99.90;;;;;;5014738;28;20057;-64
2022/01/21 09:31:33;;;;;;;5.93;0.90;;;20.30;99.90;;;;;;5015264;28;20053;-64
2022/01/21 09:34:00;;;;;;;7.97;1.13;;;20.20;99.90;;;;;;5014822;28;20383;-65
2022/01/21 09:36:27;;;;;;;9.18;1.35;;;20.20;99.90;;;;;;5015711;28;20026;-64
2022/01/21 09:38:55;;;;;;;8.65;1.23;;;20.20;99.90;;;;;;5014632;28;20022;-64
2022/01/21 09:41:23;;;;;;;3.85;0.85;;;20.20;99.90;;;;;;5026254;28;20108;-64
2022/01/21 09:43:53;;;;;;;6.45;0.98;;;20.20;99.90;;;;;;5019051;28;20041;-64
2022/01/21 09:46:36;;;;;;;7.68;1.45;;;20.20;99.90;;;;;;5014815;28;20108;-64
2022/01/21 09:49:25;;;;;;;7.20;1.40;;;20.20;99.90;;;;;;5014394;28;20045;-64
2022/01/21 09:52:05;;;;;;;7.93;1.58;;;20.20;99.90;;;;;;5032946;28;20032;-64
2022/01/21 09:54:37;;;;;;;5.60;1.15;;;20.20;99.90;;;;;;5015858;28;20091;-64
2022/01/21 09:57:07;;;;;;;5.40;1.10;;;20.20;99.90;;;;;;5031101;28;20025;-64
2022/01/21 09:59:37;;;;;;;8.18;2.50;;;20.20;99.90;;;;;;5033915;28;20410;-64
2022/01/21 10:02:09;;;;;;;10.43;2.42;;;20.20;99.90;;;;;;5027022;28;20419;-64
2022/01/21 10:04:49;;;;;;;8.55;2.28;;;20.10;99.90;;;;;;5013848;28;20087;-64
2022/01/21 10:07:19;;;;;;;6.65;2.25;;;20.00;99.90;;;;;;5027736;28;20037;-63
2022/01/21 10:09:48;;;;;;;8.57;1.40;;;19.90;99.90;;;;;;5014234;28;20021;-63
2022/01/21 10:12:16;;;;;;;8.65;1.65;;;19.90;99.90;;;;;;5018385;28;20029;-63
2022/01/21 10:14:45;;;;;;;10.63;1.50;;;19.90;99.90;;;;;;5019100;28;20033;-64
2022/01/21 10:17:14;;;;;;;9.98;1.48;;;19.80;99.90;;;;;;5014265;28;20537;-64
2022/01/21 10:19:48;;;;;;;7.80;1.58;;;19.80;99.90;;;;;;5025606;28;20040;-64
2022/01/21 10:22:19;;;;;;;9.48;1.70;;;19.80;99.90;;;;;;5024383;28;20060;-64
2022/01/21 10:24:57;;;;;;;11.35;1.48;;;19.60;99.90;;;;;;5014358;28;20037;-63
2022/01/21 10:27:38;;;;;;;8.27;1.63;;;19.50;99.90;;;;;;5013349;28;20116;-64
2022/01/21 10:30:28;;;;;;;9.43;1.20;;;19.50;99.90;;;;;;5021050;28;20076;-64
2022/01/21 10:32:55;;;;;;;9.40;1.40;;;19.60;99.90;;;;;;5013897;28;20022;-64
2022/01/21 10:35:26;;;;;;;6.88;1.58;;;19.50;99.90;;;;;;5021249;28;20037;-64
2022/01/21 10:37:57;;;;;;;12.30;2.13;;;19.50;99.90;;;;;;5022106;28;20033;-64
2022/01/21 10:40:37;;;;;;;4.60;1.77;;;19.60;99.90;;;;;;5018427;28;20096;-65
2022/01/21 10:43:19;;;;;;;6.15;1.60;;;19.60;99.90;;;;;;5012888;28;20058;-65
2022/01/21 10:45:57;;;;;;;8.85;1.40;;;19.60;99.90;;;;;;5013460;28;20421;-64
2022/01/21 10:49:02;;;;;;;6.63;1.73;;;19.60;99.90;;;;;;5023746;28;20060;-65
2022/01/21 10:51:33;;;;;;;;;;;19.60;99.90;;;;;;5018305;28;20072;-67
2022/01/21 10:54:22;;;;;;;8.48;1.50;;;19.60;99.90;;;;;;5019158;28;19915;-64
2022/01/21 10:57:14;;;;;;;8.25;2.05;;;19.70;99.90;;;;;;5017518;28;20041;-65
2022/01/21 10:59:57;;;;;;;6.70;1.55;;;19.70;99.90;;;;;;5014879;28;20022;-63
2022/01/21 11:02:34;;;;;;;9.80;1.73;;;19.70;99.90;;;;;;5023177;28;20528;-63
2022/01/21 11:05:09;;;;;;;7.18;1.60;;;19.60;99.90;;;;;;5021455;28;20054;-64
2022/01/21 11:08:01;;;;;;;3.63;0.80;;;19.70;99.90;;;;;;5019513;28;20018;-65
2022/01/21 11:10:40;;;;;;;5.75;0.77;;;19.70;99.90;;;;;;5016975;28;20485;-64
2022/01/21 11:13:18;;;;;;;8.77;1.60;;;19.70;99.90;;;;;;5024820;28;20112;-65
2022/01/21 11:16:15;;;;;;;6.20;1.00;;;19.70;99.90;;;;;;5016709;28;20478;-64
2022/01/21 11:18:54;;;;;;;9.23;1.80;;;19.60;99.90;;;;;;5012533;28;20053;-64
2022/01/21 11:21:22;;;;;;;7.32;1.15;;;19.60;99.90;;;;;;5022705;28;20482;-64
2022/01/21 11:23:49;;;;;;;6.53;1.98;;;19.70;99.90;;;;;;5024252;28;20037;-64
2022/01/21 11:26:19;;;;;;;3.95;1.17;;;19.60;99.90;;;;;;5017257;28;20104;-64
2022/01/21 11:28:49;;;;;;;5.35;1.23;;;19.70;99.90;;;;;;5014661;28;20037;-65
2022/01/21 11:31:28;;;;;;;12.35;1.40;;;19.60;99.90;;;;;;5012880;28;20021;-64
2022/01/21 11:33:56;;;;;;;4.88;1.25;;;19.60;99.90;;;;;;5023224;28;20040;-64
2022/01/21 11:36:27;;;;;;;6.55;1.40;;;19.60;99.90;;;;;;5012052;28;20025;-64
2022/01/21 11:38:55;;;;;;;3.97;0.88;;;19.60;99.90;;;;;;5015406;28;20467;-64
2022/01/21 11:41:24;;;;;;;6.35;1.33;;;19.60;99.90;;;;;;5012499;28;20487;-64
2022/01/21 11:43:58;;;;;;;7.75;1.58;;;19.50;99.90;;;;;;5012137;28;20053;-64
2022/01/21 11:46:39;;;;;;;;;;;19.50;99.90;;;;;;5012085;28;20491;-64
2022/01/21 11:49:17;;;;;;;5.45;0.73;;;19.50;99.90;;;;;;5015176;28;20021;-64
2022/01/21 11:51:44;;;;;;;7.78;1.02;;;19.50;99.90;;;;;;5020824;28;20414;-64
2022/01/21 11:54:13;;;;;;;12.35;2.00;;;19.50;99.90;;;;;;5030589;28;20025;-64
2022/01/21 11:57:00;;;;;;;9.07;1.17;;;19.50;99.90;;;;;;5020774;28;20045;-64
2022/01/21 11:59:36;;;;;;;10.07;1.08;;;19.50;99.90;;;;;;5016120;28;20025;-64
2022/01/21 12:02:25;;;;;;;6.78;1.52;;;19.50;99.90;;;;;;5029057;28;20018;-63
2022/01/21 12:04:59;;;;;;;4.28;0.98;;;19.50;99.90;;;;;;5024390;28;20451;-64
2022/01/21 12:07:44;;;;;;;6.63;1.10;;;19.40;99.90;;;;;;5012103;28;20022;-64
2022/01/21 12:10:29;;;;;;;6.63;0.90;;;19.40;99.90;;;;;;5012075;28;20490;-64
2022/01/21 12:13:07;;;;;;;4.68;1.08;;;19.40;99.90;;;;;;5027271;28;20076;-64
2022/01/21 12:21:05;;;;;;;6.77;1.00;;;19.20;99.90;;;;;;5015431;28;20026;-64
2022/01/21 12:23:44;;;;;;;4.72;1.17;;;19.10;99.90;;;;;;5003387;28;21000;-64
2022/01/21 12:26:21;;;;;;;9.65;2.42;;;19.10;99.90;;;;;;5018611;28;20028;-64
2022/01/21 12:29:08;;;;;;;5.70;1.20;;;19.10;99.90;;;;;;5015688;28;20030;-64
2022/01/21 12:31:43;;;;;;;8.88;1.23;;;19.20;99.90;;;;;;5029345;28;20385;-64
2022/01/21 12:34:14;;;;;;;5.68;1.08;;;19.20;99.90;;;;;;5028605;28;20030;-64
2022/01/21 12:36:50;;;;;;;7.40;1.27;;;19.20;99.90;;;;;;5023975;28;20565;-64
2022/01/21 12:39:42;;;;;;;6.43;1.08;;;19.20;99.90;;;;;;5016077;28;20022;-64
2022/01/21 12:42:27;;;;;;;9.40;1.15;;;19.20;99.90;;;;;;5032175;28;20104;-64
2022/01/21 12:45:05;;;;;;;8.68;1.45;;;19.30;99.90;;;;;;5016631;28;20101;-64
2022/01/21 12:47:36;;;;;;;8.70;1.40;;;19.30;99.90;;;;;;5015737;28;20038;-64
2022/01/21 12:50:10;;;;;;;8.43;1.83;;;19.40;99.90;;;;;;5015186;28;20022;-64
2022/01/21 12:52:53;;;;;;;5.80;1.13;;;19.40;99.90;;;;;;5022724;28;20030;-64
2022/01/21 12:58:17;;;;;;;9.68;2.28;;;19.40;99.90;;;;;;5022528;28;20080;-64
2022/01/21 13:00:46;;;;;;;5.55;1.15;;;19.40;99.90;;;;;;5019564;28;20030;-64
2022/01/21 13:03:43;;;;;;;9.35;1.60;;;19.40;99.90;;;;;;5022169;28;20105;-64
2022/01/21 13:06:20;;;;;;;8.85;1.95;;;19.40;99.90;;;;;;5024933;28;20037;-64
2022/01/21 13:09:08;;;;;;;6.60;0.93;;;19.40;99.90;;;;;;5015215;28;20025;-64
2022/01/21 13:11:41;;;;;;;7.30;1.67;;;19.40;99.90;;;;;;5016023;28;20021;-64
2022/01/21 13:14:34;;;;;;;8.07;1.20;;;19.40;99.90;;;;;;5031651;28;20559;-64
2022/01/21 13:17:09;;;;;;;8.70;1.45;;;19.40;99.90;;;;;;5017780;28;20133;-64
2022/01/21 13:19:55;;;;;;;9.10;1.67;;;19.40;99.90;;;;;;5015277;28;20100;-64
2022/01/21 13:22:35;;;;;;;10.57;1.70;;;19.40;99.90;;;;;;5019125;28;20124;-64
2022/01/21 13:25:15;;;;;;;13.05;1.70;;;19.40;99.90;;;;;;5018923;28;20080;-64
2022/01/21 13:27:55;;;;;;;8.25;1.88;;;19.30;99.90;;;;;;5027284;28;20548;-63
2022/01/21 13:30:34;;;;;;;5.60;0.90;;;19.30;99.90;;;;;;5020156;28;20030;-63
2022/01/21 13:33:09;;;;;;;11.43;2.00;;;19.20;99.90;;;;;;5016112;28;20088;-64
2022/01/21 13:35:39;;;;;;;11.15;1.98;;;19.10;99.90;;;;;;5017718;28;20033;-63
2022/01/21 13:38:14;;;;;;;7.63;1.40;;;19.10;99.90;;;;;;5023417;28;20401;-64
2022/01/21 13:40:55;;;;;;;6.22;1.05;;;19.10;99.90;;;;;;5030237;28;20390;-64
2022/01/21 13:43:25;;;;;;;11.15;1.42;;;19.20;99.90;;;;;;5032707;28;20041;-64
2022/01/21 13:45:59;;;;;;;9.38;1.38;;;19.20;99.90;;;;;;5021801;28;20479;-64
2022/01/21 13:48:28;;;;;;;6.85;1.10;;;19.30;99.90;;;;;;5029994;28;20136;-64
2022/01/21 13:50:57;;;;;;;6.55;1.20;;;19.20;99.90;;;;;;5031257;28;20036;-64
2022/01/21 13:53:26;;;;;;;9.10;1.23;;;19.20;99.90;;;;;;5015535;28;20026;-65
2022/01/21 13:55:59;;;;;;;5.18;1.40;;;19.30;99.90;;;;;;5024287;28;20032;-64